createdAt,value
2018-12-12T00:00:25.018Z,92.10
2018-12-12T00:02:56.452Z,92.30
2018-12-12T00:05:28.042Z,92.20
2018-12-12T00:07:59.650Z,92.10
2018-12-12T00:10:31.158Z,92.10
2018-12-12T00:13:02.568Z,92.20
2018-12-12T00:15:34.327Z,92.10
2018-12-12T00:18:06.033Z,91.80
2018-12-12T00:20:37.432Z,92.00
2018-12-12T00:23:09.019Z,92.00
2018-12-12T00:25:40.446Z,92.00
2018-12-12T00:28:12.030Z,92.20
2018-12-12T00:30:43.298Z,92.10
2018-12-12T00:33:14.842Z,92.30
2018-12-12T00:35:46.391Z,92.20
2018-12-12T00:38:17.996Z,92.20
2018-12-12T00:40:49.491Z,92.10
2018-12-12T00:43:21.042Z,92.00
2018-12-12T00:45:52.510Z,92.20
2018-12-12T00:48:24.115Z,92.20
2018-12-12T00:50:55.610Z,92.30
2018-12-12T00:53:27.155Z,92.20
2018-12-12T00:55:58.619Z,92.20
2018-12-12T00:58:30.360Z,92.20
2018-12-12T01:01:01.832Z,92.10
2018-12-12T01:03:33.414Z,92.20
2018-12-12T01:06:04.831Z,91.90
2018-12-12T01:08:36.375Z,92.20
2018-12-12T01:11:12.728Z,92.10
2018-12-12T01:13:44.307Z,92.20
2018-12-12T01:16:15.726Z,92.10
2018-12-12T01:18:47.319Z,92.10
2018-12-12T01:21:18.731Z,92.20
2018-12-12T01:23:50.321Z,92.20
2018-12-12T01:26:21.867Z,92.20
2018-12-12T01:28:53.434Z,92.10
2018-12-12T01:31:24.783Z,92.00
2018-12-12T01:33:56.306Z,92.20
2018-12-12T01:36:27.888Z,92.10
2018-12-12T01:38:59.334Z,92.30
2018-12-12T01:41:30.891Z,92.50
2018-12-12T01:44:02.357Z,92.40
2018-12-12T01:46:33.943Z,92.60
2018-12-12T01:49:05.446Z,92.60
2018-12-12T01:51:36.853Z,92.90
2018-12-12T01:54:08.472Z,93.00
2018-12-12T01:56:40.060Z,93.00
2018-12-12T01:59:11.560Z,93.30
2018-12-12T02:01:43.205Z,93.40
2018-12-12T02:04:14.676Z,93.20
2018-12-12T02:06:46.220Z,93.20
2018-12-12T02:09:17.669Z,93.20
2018-12-12T02:11:49.215Z,93.10
2018-12-12T02:14:20.679Z,93.30
2018-12-12T02:16:52.336Z,93.40
2018-12-12T02:19:24.051Z,93.40
2018-12-12T02:21:55.649Z,93.40
2018-12-12T02:24:27.190Z,93.40
2018-12-12T02:26:58.741Z,93.40
2018-12-12T02:29:30.304Z,93.30
2018-12-12T02:32:02.979Z,93.50
2018-12-12T02:34:34.435Z,93.60
2018-12-12T02:37:06.049Z,93.50
2018-12-12T02:39:37.567Z,93.60
2018-12-12T02:42:09.098Z,93.00
2018-12-12T02:44:40.550Z,93.30
2018-12-12T02:47:12.101Z,93.40
2018-12-12T02:49:43.552Z,93.20
2018-12-12T02:52:15.106Z,93.40
2018-12-12T02:54:46.564Z,93.40
2018-12-12T02:57:18.113Z,93.50
2018-12-12T02:59:49.577Z,93.50
2018-12-12T03:02:21.166Z,93.50
2018-12-12T03:04:52.676Z,93.60
2018-12-12T03:07:24.229Z,93.50
2018-12-12T03:09:55.682Z,93.30
2018-12-12T03:12:27.229Z,93.30
2018-12-12T03:14:58.699Z,93.50
2018-12-12T03:17:30.240Z,93.30
2018-12-12T03:20:01.692Z,93.70
2018-12-12T03:22:33.870Z,93.20
2018-12-12T03:25:05.555Z,92.90
2018-12-12T03:27:37.043Z,93.30
2018-12-12T03:30:08.983Z,93.00
2018-12-12T03:32:40.689Z,93.20
2018-12-12T03:35:12.158Z,92.90
2018-12-12T03:37:43.643Z,93.30
2018-12-12T03:40:15.311Z,93.10
2018-12-12T03:42:47.260Z,93.30
2018-12-12T03:45:18.813Z,93.60
2018-12-12T03:47:50.319Z,93.70
2018-12-12T03:50:21.925Z,93.70
2018-12-12T03:52:53.441Z,94.00
2018-12-12T03:55:25.138Z,93.80
2018-12-12T03:57:56.709Z,93.70
2018-12-12T04:00:28.387Z,93.70
2018-12-12T04:02:59.846Z,93.70
2018-12-12T04:05:31.494Z,93.50
2018-12-12T04:08:02.918Z,93.90
2018-12-12T04:10:34.498Z,93.90
2018-12-12T04:13:05.921Z,94.10
2018-12-12T04:15:37.811Z,94.10
2018-12-12T04:18:09.429Z,93.90
2018-12-12T04:20:41.202Z,93.90
2018-12-12T04:23:12.787Z,94.00
2018-12-12T04:25:44.255Z,93.90
2018-12-12T04:28:15.790Z,93.80
2018-12-12T04:30:47.246Z,93.80
2018-12-12T04:33:18.847Z,93.80
2018-12-12T04:35:50.355Z,93.40
2018-12-12T04:38:21.960Z,93.40
2018-12-12T04:40:53.478Z,93.30
2018-12-12T04:43:25.070Z,93.40
2018-12-12T04:45:56.566Z,93.30
2018-12-12T04:48:28.184Z,93.50
2018-12-12T04:50:59.684Z,93.20
2018-12-12T04:53:31.221Z,93.20
2018-12-12T04:56:02.687Z,93.30
2018-12-12T04:58:34.188Z,93.20
2018-12-12T05:01:05.698Z,93.20
2018-12-12T05:03:37.296Z,93.30
2018-12-12T05:06:08.802Z,93.40
2018-12-12T05:08:40.395Z,93.10
2018-12-12T05:11:11.807Z,93.10
2018-12-12T05:13:43.407Z,93.10
2018-12-12T05:16:14.917Z,92.70
2018-12-12T05:18:46.319Z,92.80
2018-12-12T05:21:17.918Z,92.80
2018-12-12T05:23:49.459Z,92.80
2018-12-12T05:26:20.911Z,93.00
2018-12-12T05:28:52.336Z,93.00
2018-12-12T05:31:23.914Z,92.90
2018-12-12T05:33:55.368Z,92.90
2018-12-12T05:36:26.922Z,92.70
2018-12-12T05:38:58.477Z,92.50
2018-12-12T05:41:30.251Z,92.50
2018-12-12T05:44:01.852Z,92.30
2018-12-12T05:46:33.250Z,92.20
2018-12-12T05:49:04.680Z,92.10
2018-12-12T05:51:36.248Z,92.00
2018-12-12T05:54:07.855Z,92.00
2018-12-12T05:56:39.364Z,91.90
2018-12-12T05:59:10.971Z,91.90
2018-12-12T06:01:42.579Z,92.00
2018-12-12T06:04:14.956Z,91.70
2018-12-12T06:06:46.496Z,92.10
2018-12-12T06:09:17.963Z,92.50
2018-12-12T06:11:49.504Z,92.20
2018-12-12T06:14:20.958Z,92.60
2018-12-12T06:16:52.571Z,92.30
2018-12-12T06:19:24.066Z,92.30
2018-12-12T06:21:55.620Z,92.40
2018-12-12T06:24:27.071Z,92.50
2018-12-12T06:26:58.623Z,92.40
2018-12-12T06:29:30.070Z,92.50
2018-12-12T06:32:01.624Z,92.80
2018-12-12T06:34:33.082Z,93.00
2018-12-12T06:37:04.630Z,93.20
2018-12-12T06:39:36.087Z,93.00
2018-12-12T06:42:07.691Z,92.90
2018-12-12T06:44:39.084Z,92.90
2018-12-12T06:47:10.504Z,92.90
2018-12-12T06:49:42.082Z,92.80
2018-12-12T06:52:13.506Z,93.00
2018-12-12T06:54:45.090Z,92.70
2018-12-12T06:57:16.706Z,93.00
2018-12-12T06:59:48.201Z,93.40
2018-12-12T07:02:19.720Z,93.00
2018-12-12T07:04:51.290Z,93.20
2018-12-12T07:07:23.007Z,93.40
2018-12-12T07:09:54.515Z,93.50
2018-12-12T07:12:25.943Z,93.70
2018-12-12T07:14:57.527Z,93.50
2018-12-12T07:17:28.983Z,93.30
2018-12-12T07:20:00.530Z,93.10
2018-12-12T07:22:31.956Z,93.50
2018-12-12T07:25:03.541Z,93.80
2018-12-12T07:27:34.964Z,93.80
2018-12-12T07:30:07.698Z,93.60
2018-12-12T07:32:39.330Z,93.60
2018-12-12T07:35:10.937Z,93.50
2018-12-12T07:37:42.619Z,93.50
2018-12-12T07:40:14.195Z,93.60
2018-12-12T07:42:45.764Z,93.70
2018-12-12T07:45:17.360Z,93.70
2018-12-12T07:47:48.828Z,93.90
2018-12-12T07:50:20.413Z,93.70
2018-12-12T07:52:51.843Z,93.80
2018-12-12T07:55:23.432Z,93.70
2018-12-12T07:57:54.836Z,93.80
2018-12-12T08:00:26.421Z,93.60
2018-12-12T08:02:57.855Z,93.50
2018-12-12T08:05:29.423Z,93.50
2018-12-12T08:08:01.042Z,93.40
2018-12-12T08:10:32.550Z,93.10
2018-12-12T08:13:04.086Z,93.40
2018-12-12T08:15:35.569Z,93.40
2018-12-12T08:18:07.097Z,93.00
2018-12-12T08:20:38.511Z,93.30
2018-12-12T08:23:10.618Z,93.30
2018-12-12T08:25:42.359Z,93.60
2018-12-12T08:28:13.835Z,93.10
2018-12-12T08:30:45.439Z,93.30
2018-12-12T08:33:16.930Z,93.30
2018-12-12T08:35:48.479Z,93.40
2018-12-12T08:38:19.940Z,93.30
2018-12-12T08:40:51.547Z,93.00
2018-12-12T08:43:23.043Z,93.10
2018-12-12T08:45:54.447Z,92.80
2018-12-12T08:48:26.044Z,92.80
2018-12-12T08:50:57.915Z,93.00
2018-12-12T08:53:29.327Z,93.10
2018-12-12T08:56:00.903Z,92.90
2018-12-12T08:58:32.467Z,92.30
2018-12-12T09:01:04.011Z,92.80
2018-12-12T09:03:35.575Z,93.00
2018-12-12T09:06:07.245Z,93.10
2018-12-12T09:08:38.839Z,92.90
2018-12-12T09:11:10.341Z,93.10
2018-12-12T09:13:41.957Z,92.80
2018-12-12T09:16:13.464Z,93.00
2018-12-12T09:18:45.073Z,93.20
2018-12-12T09:21:16.573Z,93.10
2018-12-12T09:23:48.175Z,92.60
2018-12-12T09:26:19.673Z,93.10
2018-12-12T09:28:51.319Z,93.10
2018-12-12T09:31:22.774Z,92.50
2018-12-12T09:33:54.394Z,92.60
2018-12-12T09:36:25.867Z,92.70
2018-12-12T09:38:57.431Z,92.80
2018-12-12T09:41:28.848Z,92.90
2018-12-12T09:44:00.451Z,92.70
2018-12-12T09:46:31.987Z,92.50
2018-12-12T09:49:03.552Z,92.20
2018-12-12T09:51:35.153Z,92.50
2018-12-12T09:54:06.656Z,93.20
2018-12-12T09:56:38.202Z,93.00
2018-12-12T09:59:09.760Z,92.60
2018-12-12T10:01:41.227Z,92.50
2018-12-12T10:04:12.797Z,91.90
2018-12-12T10:06:44.269Z,91.70
2018-12-12T10:09:16.091Z,91.70
2018-12-12T10:11:47.647Z,91.80
2018-12-12T10:14:19.085Z,91.60
2018-12-12T10:16:50.626Z,92.30
2018-12-12T10:19:22.090Z,91.90
2018-12-12T10:21:54.158Z,91.60
2018-12-12T10:24:25.703Z,91.70
2018-12-12T10:26:57.271Z,91.50
2018-12-12T10:29:28.680Z,91.40
2018-12-12T10:32:00.275Z,91.30
2018-12-12T10:34:31.683Z,91.40
2018-12-12T10:37:03.283Z,91.60
2018-12-12T10:39:34.743Z,91.40
2018-12-12T10:42:06.397Z,91.50
2018-12-12T10:44:37.987Z,91.60
2018-12-12T10:47:09.500Z,91.40
2018-12-12T10:49:41.105Z,90.80
2018-12-12T10:52:12.617Z,90.80
2018-12-12T10:54:44.206Z,90.90
2018-12-12T10:57:15.827Z,90.60
2018-12-12T10:59:47.416Z,89.20
2018-12-12T11:02:23.921Z,87.80
2018-12-12T11:04:55.476Z,86.90
2018-12-12T11:07:27.038Z,85.50
2018-12-12T11:09:58.607Z,83.30
2018-12-12T11:12:30.023Z,80.70
2018-12-12T11:15:01.869Z,79.80
2018-12-12T11:17:33.462Z,79.60
2018-12-12T11:20:05.339Z,78.70
2018-12-12T11:22:36.864Z,77.40
2018-12-12T11:25:08.347Z,74.20
2018-12-12T11:27:39.870Z,75.90
2018-12-12T11:30:11.344Z,75.30
2018-12-12T11:32:42.866Z,75.40
2018-12-12T11:35:14.346Z,77.10
2018-12-12T11:37:45.947Z,77.20
2018-12-12T11:40:17.438Z,75.30
2018-12-12T11:42:49.003Z,75.00
2018-12-12T11:45:20.454Z,75.10
2018-12-12T11:47:52.164Z,74.70
2018-12-12T11:50:23.624Z,74.90
2018-12-12T11:52:55.205Z,74.20
2018-12-12T11:55:26.643Z,73.50
2018-12-12T11:57:58.215Z,73.80
2018-12-12T12:00:29.722Z,74.80
2018-12-12T12:03:01.329Z,73.50
2018-12-12T12:05:32.751Z,67.50
2018-12-12T12:08:04.353Z,59.20
2018-12-12T12:10:36.048Z,53.70
2018-12-12T12:13:07.658Z,49.50
2018-12-12T12:15:39.265Z,45.80
2018-12-12T12:18:10.767Z,44.00
2018-12-12T12:20:42.320Z,43.70
2018-12-12T12:23:13.768Z,45.50
2018-12-12T12:25:45.367Z,48.00
2018-12-12T12:28:16.873Z,50.10
2018-12-12T12:30:48.544Z,52.00
2018-12-12T12:33:19.978Z,54.60
2018-12-12T12:35:51.521Z,57.30
2018-12-12T12:38:22.934Z,59.30
2018-12-12T12:40:54.527Z,60.30
2018-12-12T12:43:25.955Z,62.60
2018-12-12T12:45:57.641Z,63.40
2018-12-12T12:48:29.187Z,64.80
2018-12-12T12:51:00.725Z,66.80
2018-12-12T12:53:32.350Z,67.70
2018-12-12T12:56:03.860Z,68.40
2018-12-12T12:58:35.473Z,69.10
2018-12-12T13:01:06.976Z,69.60
2018-12-12T13:03:38.688Z,70.00
2018-12-12T13:06:10.179Z,71.10
2018-12-12T13:08:41.727Z,71.60
2018-12-12T13:11:14.930Z,72.00
2018-12-12T13:13:46.771Z,72.10
2018-12-12T13:16:18.201Z,72.00
2018-12-12T13:18:49.799Z,72.60
2018-12-12T13:21:21.093Z,72.70
2018-12-12T13:23:52.683Z,73.00
2018-12-12T13:26:24.145Z,72.90
2018-12-12T13:28:55.653Z,72.30
2018-12-12T13:31:27.155Z,72.00
2018-12-12T13:33:58.701Z,72.70
2018-12-12T13:36:30.163Z,73.50
2018-12-12T13:39:01.705Z,73.40
2018-12-12T13:41:33.160Z,74.00
2018-12-12T13:44:04.829Z,74.30
2018-12-12T13:46:36.263Z,73.90
2018-12-12T13:49:07.834Z,73.10
2018-12-12T13:51:39.282Z,74.00
2018-12-12T13:54:10.881Z,74.50
2018-12-12T13:56:42.382Z,74.50
2018-12-12T13:59:13.996Z,74.50
2018-12-12T14:01:45.592Z,74.70
2018-12-12T14:04:22.555Z,74.20
2018-12-12T14:06:50.916Z,73.50
2018-12-12T14:09:22.402Z,73.60
2018-12-12T14:11:54.017Z,73.80
2018-12-12T14:14:25.515Z,73.80
2018-12-12T14:16:57.048Z,74.00
2018-12-12T14:19:28.523Z,74.30
2018-12-12T14:22:00.073Z,74.30
2018-12-12T14:24:31.531Z,74.80
2018-12-12T14:27:03.067Z,74.70
2018-12-12T14:29:34.526Z,74.80
2018-12-12T14:32:06.086Z,75.00
2018-12-12T14:34:37.551Z,75.20
2018-12-12T14:37:09.138Z,75.90
2018-12-12T14:39:40.542Z,75.90
2018-12-12T14:42:12.078Z,75.70
2018-12-12T14:44:43.550Z,75.90
2018-12-12T14:47:15.147Z,76.70
2018-12-12T14:49:46.670Z,76.90
2018-12-12T14:52:18.255Z,77.00
2018-12-12T14:54:49.750Z,76.30
2018-12-12T14:57:21.956Z,76.80
2018-12-12T14:59:53.691Z,78.20
2018-12-12T15:02:25.132Z,82.50
2018-12-12T15:04:56.740Z,85.60
2018-12-12T15:07:28.154Z,86.20
2018-12-12T15:09:59.688Z,86.70
2018-12-12T15:12:31.247Z,87.80
2018-12-12T15:15:02.670Z,87.70
2018-12-12T15:17:34.246Z,87.80
2018-12-12T15:20:06.259Z,88.10
2018-12-12T15:22:37.683Z,88.30
2018-12-12T15:25:09.228Z,88.70
2018-12-12T15:27:40.692Z,88.60
2018-12-12T15:30:12.285Z,88.90
2018-12-12T15:32:43.784Z,88.40
2018-12-12T15:35:15.327Z,88.40
2018-12-12T15:37:46.801Z,88.00
2018-12-12T15:40:18.389Z,88.30
2018-12-12T15:42:49.796Z,88.30
2018-12-12T15:45:21.409Z,88.30
2018-12-12T15:47:52.908Z,88.40
2018-12-12T15:50:24.716Z,87.50
2018-12-12T15:52:56.228Z,87.30
2018-12-12T15:55:27.767Z,87.90
2018-12-12T15:57:59.230Z,86.90
2018-12-12T16:00:31.245Z,86.80
2018-12-12T16:03:02.967Z,87.20
2018-12-12T16:05:34.399Z,87.70
2018-12-12T16:08:05.996Z,87.80
2018-12-12T16:10:37.499Z,87.80
2018-12-12T16:13:09.109Z,88.60
2018-12-12T16:15:40.702Z,88.80
2018-12-12T16:18:12.150Z,87.30
2018-12-12T16:20:43.699Z,87.50
2018-12-12T16:23:15.139Z,87.20
2018-12-12T16:25:46.662Z,87.30
2018-12-12T16:28:18.110Z,87.30
2018-12-12T16:30:49.624Z,86.80
2018-12-12T16:33:21.046Z,86.50
2018-12-12T16:35:52.627Z,86.60
2018-12-12T16:38:24.175Z,86.30
2018-12-12T16:40:55.741Z,85.30
2018-12-12T16:43:27.360Z,85.40
2018-12-12T16:45:58.940Z,85.90
2018-12-12T16:48:30.352Z,86.10
2018-12-12T16:51:01.962Z,86.50
2018-12-12T16:53:33.379Z,86.80
2018-12-12T16:56:04.963Z,86.60
2018-12-12T16:58:36.571Z,86.50
2018-12-12T17:01:08.078Z,86.30
2018-12-12T17:03:39.670Z,86.60
2018-12-12T17:06:11.187Z,85.70
2018-12-12T17:08:42.782Z,85.40
2018-12-12T17:11:14.325Z,85.50
2018-12-12T17:13:45.881Z,85.20
2018-12-12T17:16:17.381Z,84.90
2018-12-12T17:18:48.995Z,84.70
2018-12-12T17:21:20.602Z,84.20
2018-12-12T17:23:52.210Z,84.30
2018-12-12T17:26:23.711Z,84.90
2018-12-12T17:28:55.311Z,84.50
2018-12-12T17:31:26.812Z,84.40
2018-12-12T17:33:58.523Z,83.70
2018-12-12T17:36:30.036Z,83.60
2018-12-12T17:39:01.638Z,83.30
2018-12-12T17:41:33.144Z,84.40
2018-12-12T17:44:04.585Z,84.40
2018-12-12T17:46:36.146Z,84.30
2018-12-12T17:49:07.607Z,84.10
2018-12-12T17:51:39.141Z,84.00
2018-12-12T17:54:10.603Z,84.40
2018-12-12T17:56:42.242Z,84.60
2018-12-12T17:59:13.718Z,85.20
2018-12-12T18:01:45.282Z,84.60
2018-12-12T18:04:16.723Z,84.60
2018-12-12T18:06:48.219Z,84.10
2018-12-12T18:09:19.715Z,84.00
2018-12-12T18:11:51.260Z,83.20
2018-12-12T18:14:22.720Z,83.50
2018-12-12T18:16:54.271Z,82.90
2018-12-12T18:19:25.728Z,82.80
2018-12-12T18:21:57.295Z,82.90
2018-12-12T18:24:28.745Z,83.00
2018-12-12T18:27:00.281Z,83.90
2018-12-12T18:29:31.752Z,84.30
2018-12-12T18:32:03.747Z,83.90
2018-12-12T18:34:35.154Z,84.00
2018-12-12T18:37:06.585Z,84.20
2018-12-12T18:39:38.146Z,83.90
2018-12-12T18:42:09.720Z,83.40
2018-12-12T18:44:41.170Z,83.50
2018-12-12T18:47:12.718Z,83.00
2018-12-12T18:49:44.260Z,83.90
2018-12-12T18:52:15.820Z,83.90
2018-12-12T18:54:47.380Z,83.30
2018-12-12T18:57:18.922Z,83.00
2018-12-12T18:59:51.683Z,83.40
2018-12-12T19:02:23.187Z,83.50
2018-12-12T19:04:54.578Z,83.90
2018-12-12T19:07:26.179Z,84.20
2018-12-12T19:09:57.590Z,84.60
2018-12-12T19:12:29.165Z,85.00
2018-12-12T19:15:03.544Z,84.70
2018-12-12T19:17:35.132Z,85.10
2018-12-12T19:20:07.938Z,85.20
2018-12-12T19:22:39.391Z,84.90
2018-12-12T19:25:11.356Z,85.30
2018-12-12T19:27:42.811Z,85.70
2018-12-12T19:30:14.403Z,86.10
2018-12-12T19:32:45.907Z,86.50
2018-12-12T19:35:17.319Z,85.60
2018-12-12T19:37:48.898Z,86.10
2018-12-12T19:40:20.523Z,86.30
2018-12-12T19:42:52.136Z,86.80
2018-12-12T19:45:23.749Z,86.20
2018-12-12T19:47:55.285Z,86.30
2018-12-12T19:50:26.769Z,85.30
2018-12-12T19:52:58.339Z,85.90
2018-12-12T19:55:29.757Z,86.10
2018-12-12T19:58:01.445Z,85.70
2018-12-12T20:00:32.970Z,85.60
2018-12-12T20:03:04.548Z,85.20
2018-12-12T20:05:41.469Z,85.80
2018-12-12T20:08:09.642Z,85.80
2018-12-12T20:10:41.028Z,86.20
2018-12-12T20:13:12.619Z,86.50
2018-12-12T20:15:44.468Z,86.10
2018-12-12T20:18:16.456Z,85.80
2018-12-12T20:20:55.619Z,85.20
2018-12-12T20:23:38.022Z,85.30
2018-12-12T20:26:21.384Z,85.10
2018-12-12T20:29:03.487Z,84.80
2018-12-12T20:31:47.230Z,84.70
2018-12-12T20:34:32.376Z,85.10
2018-12-12T20:37:12.472Z,86.30
2018-12-12T20:39:52.780Z,87.70
2018-12-12T20:42:32.484Z,88.70
2018-12-12T20:45:12.169Z,89.30
2018-12-12T20:47:53.568Z,89.50
2018-12-12T20:50:34.700Z,89.80
2018-12-12T20:53:14.715Z,89.40
2018-12-12T20:55:54.905Z,89.30
2018-12-12T20:58:27.055Z,89.50
2018-12-12T21:00:58.483Z,89.70
2018-12-12T21:03:30.074Z,89.80
2018-12-12T21:06:01.529Z,89.50
2018-12-12T21:08:33.066Z,88.80
2018-12-12T21:11:04.559Z,89.10
2018-12-12T21:13:36.145Z,89.90
2018-12-12T21:16:07.643Z,90.30
2018-12-12T21:18:39.244Z,90.60
2018-12-12T21:21:10.748Z,90.70
2018-12-12T21:23:42.287Z,90.40
2018-12-12T21:26:14.221Z,90.40
2018-12-12T21:28:45.705Z,90.00
2018-12-12T21:31:17.323Z,90.20
2018-12-12T21:33:48.824Z,90.00
2018-12-12T21:36:20.428Z,89.20
2018-12-12T21:38:52.034Z,89.20
2018-12-12T21:41:23.567Z,88.40
2018-12-12T21:43:55.046Z,87.40
2018-12-12T21:46:26.586Z,87.00
2018-12-12T21:48:58.056Z,86.80
2018-12-12T21:51:29.648Z,87.50
2018-12-12T21:54:01.146Z,87.50
2018-12-12T21:56:32.702Z,87.10
2018-12-12T21:59:04.158Z,86.30
2018-12-12T22:01:35.713Z,86.90
2018-12-12T22:04:07.166Z,87.40
2018-12-12T22:06:38.768Z,87.80
2018-12-12T22:09:18.367Z,87.60
2018-12-12T22:12:00.457Z,88.40
2018-12-12T22:14:39.989Z,88.30
2018-12-12T22:17:19.894Z,88.10
2018-12-12T22:19:59.219Z,87.60
2018-12-12T22:22:39.624Z,86.70
2018-12-12T22:25:18.752Z,87.00
2018-12-12T22:27:57.657Z,86.40
2018-12-12T22:30:36.682Z,86.10
2018-12-12T22:33:15.402Z,86.00
2018-12-12T22:35:54.072Z,86.60
2018-12-12T22:38:32.669Z,87.90
2018-12-12T22:41:10.959Z,88.90
2018-12-12T22:43:49.120Z,89.50
2018-12-12T22:46:27.659Z,90.10
2018-12-12T22:49:07.033Z,90.00
2018-12-12T22:51:43.519Z,90.00
2018-12-12T22:54:19.986Z,89.70
2018-12-12T22:56:58.436Z,90.00
2018-12-12T22:59:36.492Z,90.00
2018-12-12T23:02:13.570Z,90.00
2018-12-12T23:04:51.032Z,89.40
2018-12-12T23:07:28.487Z,89.50
2018-12-12T23:10:06.795Z,88.90
2018-12-12T23:12:44.123Z,88.80
2018-12-12T23:15:21.420Z,90.00
2018-12-12T23:17:53.320Z,89.90
2018-12-12T23:20:24.851Z,89.90
2018-12-12T23:22:56.450Z,89.70
2018-12-12T23:25:28.277Z,89.40
2018-12-12T23:27:59.864Z,89.60
2018-12-12T23:30:31.284Z,89.70
2018-12-12T23:33:02.878Z,89.40
2018-12-12T23:35:34.296Z,89.30
2018-12-12T23:38:05.894Z,89.30
2018-12-12T23:40:37.290Z,89.40
2018-12-12T23:43:08.903Z,89.50
2018-12-12T23:45:40.245Z,89.70
2018-12-12T23:48:11.784Z,90.20
2018-12-12T23:50:43.241Z,90.00
2018-12-12T23:53:14.797Z,90.00
2018-12-12T23:55:46.246Z,90.10
2018-12-12T23:58:17.795Z,90.10
